sensor_id;sensor_type;location;lat;lon;timestamp;P1;durP1;ratioP1;P2;durP2;ratioP2
10144;SDS011;5113;41.822;23.564;2022-10-29T00:00:29;10.47;;;3.90;;
10144;SDS011;5113;41.822;23.564;2022-10-29T00:03:35;7.00;;;4.53;;
10144;SDS011;5113;41.822;23.564;2022-10-29T00:06:42;6.33;;;3.97;;
10144;SDS011;5113;41.822;23.564;2022-10-29T00:09:48;7.13;;;4.83;;
10144;SDS011;5113;41.822;23.564;2022-10-29T00:12:54;7.23;;;4.67;;
10144;SDS011;5113;41.822;23.564;2022-10-29T00:16:04;4.93;;;3.93;;
10144;SDS011;5113;41.822;23.564;2022-10-29T00:19:11;6.23;;;5.60;;
10144;SDS011;5113;41.822;23.564;2022-10-29T00:22:17;8.97;;;5.03;;
10144;SDS011;5113;41.822;23.564;2022-10-29T00:25:23;4.43;;;4.03;;
10144;SDS011;5113;41.822;23.564;2022-10-29T00:28:29;8.63;;;5.97;;
10144;SDS011;5113;41.822;23.564;2022-10-29T00:31:37;9.77;;;5.00;;
10144;SDS011;5113;41.822;23.564;2022-10-29T00:34:44;15.77;;;7.90;;
10144;SDS011;5113;41.822;23.564;2022-10-29T00:37:50;15.73;;;7.00;;
10144;SDS011;5113;41.822;23.564;2022-10-29T00:40:57;7.97;;;4.03;;
10144;SDS011;5113;41.822;23.564;2022-10-29T00:44:24;4.93;;;4.47;;
10144;SDS011;5113;41.822;23.564;2022-10-29T00:47:34;6.60;;;5.00;;
10144;SDS011;5113;41.822;23.564;2022-10-29T00:50:42;6.37;;;5.00;;
10144;SDS011;5113;41.822;23.564;2022-10-29T00:53:51;6.20;;;5.60;;
10144;SDS011;5113;41.822;23.564;2022-10-29T00:57:02;9.37;;;5.20;;
10144;SDS011;5113;41.822;23.564;2022-10-29T01:00:13;6.87;;;5.43;;
10144;SDS011;5113;41.822;23.564;2022-10-29T01:03:21;10.17;;;5.33;;
10144;SDS011;5113;41.822;23.564;2022-10-29T01:06:27;8.17;;;5.30;;
10144;SDS011;5113;41.822;23.564;2022-10-29T01:09:35;10.63;;;6.07;;
10144;SDS011;5113;41.822;23.564;2022-10-29T01:16:14;6.03;;;4.67;;
10144;SDS011;5113;41.822;23.564;2022-10-29T01:23:13;5.70;;;5.13;;
10144;SDS011;5113;41.822;23.564;2022-10-29T01:26:56;6.07;;;4.47;;
10144;SDS011;5113;41.822;23.564;2022-10-29T01:30:35;6.13;;;4.43;;
10144;SDS011;5113;41.822;23.564;2022-10-29T01:34:10;6.00;;;4.77;;
10144;SDS011;5113;41.822;23.564;2022-10-29T01:37:23;4.93;;;3.97;;
10144;SDS011;5113;41.822;23.564;2022-10-29T01:40:38;6.83;;;5.37;;
10144;SDS011;5113;41.822;23.564;2022-10-29T01:43:54;6.03;;;5.53;;
10144;SDS011;5113;41.822;23.564;2022-10-29T01:47:09;7.57;;;4.47;;
10144;SDS011;5113;41.822;23.564;2022-10-29T01:50:18;6.23;;;5.53;;
10144;SDS011;5113;41.822;23.564;2022-10-29T01:53:27;7.17;;;5.27;;
10144;SDS011;5113;41.822;23.564;2022-10-29T01:56:35;7.03;;;5.00;;
10144;SDS011;5113;41.822;23.564;2022-10-29T01:59:41;6.43;;;5.83;;
10144;SDS011;5113;41.822;23.564;2022-10-29T02:03:04;9.93;;;5.83;;
10144;SDS011;5113;41.822;23.564;2022-10-29T02:06:23;8.60;;;5.40;;
10144;SDS011;5113;41.822;23.564;2022-10-29T02:09:39;7.17;;;5.57;;
10144;SDS011;5113;41.822;23.564;2022-10-29T02:12:49;5.00;;;4.47;;
10144;SDS011;5113;41.822;23.564;2022-10-29T02:15:58;6.13;;;5.20;;
10144;SDS011;5113;41.822;23.564;2022-10-29T02:19:09;6.20;;;5.07;;
10144;SDS011;5113;41.822;23.564;2022-10-29T02:22:15;7.03;;;5.13;;
10144;SDS011;5113;41.822;23.564;2022-10-29T02:25:21;26.10;;;12.67;;
10144;SDS011;5113;41.822;23.564;2022-10-29T02:28:28;25.17;;;10.90;;
10144;SDS011;5113;41.822;23.564;2022-10-29T02:31:34;24.77;;;15.17;;
10144;SDS011;5113;41.822;23.564;2022-10-29T02:34:42;15.70;;;10.40;;
10144;SDS011;5113;41.822;23.564;2022-10-29T02:37:48;9.27;;;6.90;;
10144;SDS011;5113;41.822;23.564;2022-10-29T02:40:55;19.50;;;13.40;;
10144;SDS011;5113;41.822;23.564;2022-10-29T02:44:00;17.63;;;10.83;;
10144;SDS011;5113;41.822;23.564;2022-10-29T02:47:07;16.97;;;8.93;;
10144;SDS011;5113;41.822;23.564;2022-10-29T02:50:14;9.50;;;7.60;;
10144;SDS011;5113;41.822;23.564;2022-10-29T02:53:20;12.00;;;8.10;;
10144;SDS011;5113;41.822;23.564;2022-10-29T02:56:27;11.70;;;6.77;;
10144;SDS011;5113;41.822;23.564;2022-10-29T02:59:33;10.00;;;6.03;;
10144;SDS011;5113;41.822;23.564;2022-10-29T03:02:39;13.63;;;7.03;;
10144;SDS011;5113;41.822;23.564;2022-10-29T03:05:47;8.50;;;6.97;;
10144;SDS011;5113;41.822;23.564;2022-10-29T03:09:11;7.23;;;5.43;;
10144;SDS011;5113;41.822;23.564;2022-10-29T03:12:17;8.93;;;6.80;;
10144;SDS011;5113;41.822;23.564;2022-10-29T03:15:24;14.33;;;8.30;;
10144;SDS011;5113;41.822;23.564;2022-10-29T03:18:30;13.60;;;6.33;;
10144;SDS011;5113;41.822;23.564;2022-10-29T03:21:38;29.33;;;14.40;;
10144;SDS011;5113;41.822;23.564;2022-10-29T03:24:44;29.00;;;14.43;;
10144;SDS011;5113;41.822;23.564;2022-10-29T03:27:50;27.13;;;14.40;;
10144;SDS011;5113;41.822;23.564;2022-10-29T03:30:57;21.70;;;11.53;;
10144;SDS011;5113;41.822;23.564;2022-10-29T03:34:03;16.10;;;9.67;;
10144;SDS011;5113;41.822;23.564;2022-10-29T03:37:10;19.43;;;13.00;;
10144;SDS011;5113;41.822;23.564;2022-10-29T03:40:16;24.00;;;13.50;;
10144;SDS011;5113;41.822;23.564;2022-10-29T03:43:23;20.97;;;13.10;;
10144;SDS011;5113;41.822;23.564;2022-10-29T03:46:30;33.07;;;17.03;;
10144;SDS011;5113;41.822;23.564;2022-10-29T03:49:36;31.63;;;12.40;;
10144;SDS011;5113;41.822;23.564;2022-10-29T03:52:43;29.47;;;14.83;;
10144;SDS011;5113;41.822;23.564;2022-10-29T03:55:49;15.13;;;9.83;;
10144;SDS011;5113;41.822;23.564;2022-10-29T03:58:56;10.30;;;6.97;;
10144;SDS011;5113;41.822;23.564;2022-10-29T04:02:02;12.80;;;8.20;;
10144;SDS011;5113;41.822;23.564;2022-10-29T04:05:08;21.87;;;12.97;;
10144;SDS011;5113;41.822;23.564;2022-10-29T04:08:16;22.67;;;12.90;;
10144;SDS011;5113;41.822;23.564;2022-10-29T04:11:22;19.77;;;14.13;;
10144;SDS011;5113;41.822;23.564;2022-10-29T04:14:29;26.70;;;15.10;;
10144;SDS011;5113;41.822;23.564;2022-10-29T04:17:35;19.03;;;11.03;;
10144;SDS011;5113;41.822;23.564;2022-10-29T04:20:41;44.73;;;24.53;;
10144;SDS011;5113;41.822;23.564;2022-10-29T04:24:09;35.20;;;22.00;;
10144;SDS011;5113;41.822;23.564;2022-10-29T04:27:35;19.17;;;10.77;;
10144;SDS011;5113;41.822;23.564;2022-10-29T04:31:02;21.03;;;12.77;;
10144;SDS011;5113;41.822;23.564;2022-10-29T04:34:09;25.57;;;13.67;;
10144;SDS011;5113;41.822;23.564;2022-10-29T04:37:16;39.17;;;17.23;;
10144;SDS011;5113;41.822;23.564;2022-10-29T04:40:23;28.53;;;15.73;;
10144;SDS011;5113;41.822;23.564;2022-10-29T04:43:30;39.40;;;19.53;;
10144;SDS011;5113;41.822;23.564;2022-10-29T04:46:36;20.13;;;12.40;;
10144;SDS011;5113;41.822;23.564;2022-10-29T04:49:42;26.27;;;12.67;;
10144;SDS011;5113;41.822;23.564;2022-10-29T04:52:48;16.33;;;9.80;;
10144;SDS011;5113;41.822;23.564;2022-10-29T04:55:58;16.63;;;11.27;;
10144;SDS011;5113;41.822;23.564;2022-10-29T04:59:05;14.23;;;10.27;;
10144;SDS011;5113;41.822;23.564;2022-10-29T05:02:12;25.63;;;13.63;;
10144;SDS011;5113;41.822;23.564;2022-10-29T05:05:18;29.30;;;15.17;;
10144;SDS011;5113;41.822;23.564;2022-10-29T05:08:25;32.97;;;17.30;;
10144;SDS011;5113;41.822;23.564;2022-10-29T05:11:33;53.97;;;29.87;;
10144;SDS011;5113;41.822;23.564;2022-10-29T05:14:40;31.97;;;21.30;;
10144;SDS011;5113;41.822;23.564;2022-10-29T05:17:46;27.27;;;18.10;;
10144;SDS011;5113;41.822;23.564;2022-10-29T05:20:52;27.03;;;16.60;;
10144;SDS011;5113;41.822;23.564;2022-10-29T05:23:59;27.13;;;15.57;;
10144;SDS011;5113;41.822;23.564;2022-10-29T05:27:06;27.87;;;18.37;;
10144;SDS011;5113;41.822;23.564;2022-10-29T05:30:12;30.40;;;16.63;;
10144;SDS011;5113;41.822;23.564;2022-10-29T05:33:19;21.27;;;15.30;;
10144;SDS011;5113;41.822;23.564;2022-10-29T05:36:27;24.97;;;13.53;;
10144;SDS011;5113;41.822;23.564;2022-10-29T05:39:33;31.40;;;17.87;;
10144;SDS011;5113;41.822;23.564;2022-10-29T05:42:41;29.57;;;16.10;;
10144;SDS011;5113;41.822;23.564;2022-10-29T05:46:00;24.50;;;14.13;;
10144;SDS011;5113;41.822;23.564;2022-10-29T05:49:07;26.43;;;16.73;;
10144;SDS011;5113;41.822;23.564;2022-10-29T05:52:15;25.53;;;16.50;;
10144;SDS011;5113;41.822;23.564;2022-10-29T05:55:21;39.20;;;22.73;;
10144;SDS011;5113;41.822;23.564;2022-10-29T05:58:29;37.70;;;22.30;;
10144;SDS011;5113;41.822;23.564;2022-10-29T06:01:35;294.13;;;100.57;;
10144;SDS011;5113;41.822;23.564;2022-10-29T06:04:41;137.73;;;57.27;;
10144;SDS011;5113;41.822;23.564;2022-10-29T06:07:51;98.37;;;37.27;;
10144;SDS011;5113;41.822;23.564;2022-10-29T06:10:59;53.30;;;23.13;;
10144;SDS011;5113;41.822;23.564;2022-10-29T06:14:08;34.67;;;17.67;;
10144;SDS011;5113;41.822;23.564;2022-10-29T06:17:14;29.80;;;16.47;;
10144;SDS011;5113;41.822;23.564;2022-10-29T06:20:20;18.70;;;9.97;;
10144;SDS011;5113;41.822;23.564;2022-10-29T06:23:27;19.30;;;10.73;;
10144;SDS011;5113;41.822;23.564;2022-10-29T06:26:34;12.60;;;9.17;;
10144;SDS011;5113;41.822;23.564;2022-10-29T06:29:42;13.20;;;7.87;;
10144;SDS011;5113;41.822;23.564;2022-10-29T06:32:48;36.83;;;16.97;;
10144;SDS011;5113;41.822;23.564;2022-10-29T06:35:56;20.90;;;14.60;;
10144;SDS011;5113;41.822;23.564;2022-10-29T06:39:03;22.47;;;14.20;;
10144;SDS011;5113;41.822;23.564;2022-10-29T06:42:10;19.07;;;11.23;;
10144;SDS011;5113;41.822;23.564;2022-10-29T06:45:17;16.40;;;8.50;;
10144;SDS011;5113;41.822;23.564;2022-10-29T06:48:24;19.83;;;9.20;;
10144;SDS011;5113;41.822;23.564;2022-10-29T06:51:30;13.77;;;9.60;;
10144;SDS011;5113;41.822;23.564;2022-10-29T06:54:36;15.53;;;8.97;;
10144;SDS011;5113;41.822;23.564;2022-10-29T06:57:42;26.80;;;15.27;;
10144;SDS011;5113;41.822;23.564;2022-10-29T07:00:50;12.37;;;8.73;;
10144;SDS011;5113;41.822;23.564;2022-10-29T07:03:57;9.83;;;8.03;;
10144;SDS011;5113;41.822;23.564;2022-10-29T07:07:03;22.53;;;12.73;;
10144;SDS011;5113;41.822;23.564;2022-10-29T07:10:09;21.40;;;11.53;;
10144;SDS011;5113;41.822;23.564;2022-10-29T07:13:15;28.10;;;13.20;;
10144;SDS011;5113;41.822;23.564;2022-10-29T07:16:23;19.83;;;12.73;;
10144;SDS011;5113;41.822;23.564;2022-10-29T07:19:29;15.13;;;10.83;;
10144;SDS011;5113;41.822;23.564;2022-10-29T07:22:35;16.03;;;11.23;;
10144;SDS011;5113;41.822;23.564;2022-10-29T07:25:41;24.53;;;11.33;;
10144;SDS011;5113;41.822;23.564;2022-10-29T07:28:48;17.87;;;8.73;;
10144;SDS011;5113;41.822;23.564;2022-10-29T07:31:55;12.00;;;7.27;;
10144;SDS011;5113;41.822;23.564;2022-10-29T07:35:02;7.60;;;6.37;;
10144;SDS011;5113;41.822;23.564;2022-10-29T07:38:09;11.27;;;7.33;;
10144;SDS011;5113;41.822;23.564;2022-10-29T07:41:16;8.90;;;7.63;;
10144;SDS011;5113;41.822;23.564;2022-10-29T07:44:22;9.07;;;6.33;;
10144;SDS011;5113;41.822;23.564;2022-10-29T07:47:30;9.27;;;6.87;;
10144;SDS011;5113;41.822;23.564;2022-10-29T07:50:37;7.80;;;6.00;;
10144;SDS011;5113;41.822;23.564;2022-10-29T07:53:43;8.93;;;6.60;;
10144;SDS011;5113;41.822;23.564;2022-10-29T07:56:50;7.27;;;5.97;;
10144;SDS011;5113;41.822;23.564;2022-10-29T07:59:56;8.50;;;6.17;;
10144;SDS011;5113;41.822;23.564;2022-10-29T08:03:04;10.60;;;7.07;;
10144;SDS011;5113;41.822;23.564;2022-10-29T08:06:10;13.90;;;6.60;;
10144;SDS011;5113;41.822;23.564;2022-10-29T08:09:17;6.70;;;5.70;;
10144;SDS011;5113;41.822;23.564;2022-10-29T08:12:23;16.27;;;8.37;;
10144;SDS011;5113;41.822;23.564;2022-10-29T08:15:29;10.67;;;6.07;;
10144;SDS011;5113;41.822;23.564;2022-10-29T08:18:38;9.27;;;7.00;;
10144;SDS011;5113;41.822;23.564;2022-10-29T08:21:44;10.70;;;7.00;;
10144;SDS011;5113;41.822;23.564;2022-10-29T08:24:50;6.93;;;5.13;;
10144;SDS011;5113;41.822;23.564;2022-10-29T08:27:57;7.03;;;5.10;;
10144;SDS011;5113;41.822;23.564;2022-10-29T08:31:04;8.17;;;5.90;;
10144;SDS011;5113;41.822;23.564;2022-10-29T08:34:12;8.60;;;6.07;;
10144;SDS011;5113;41.822;23.564;2022-10-29T08:37:18;9.20;;;8.20;;
10144;SDS011;5113;41.822;23.564;2022-10-29T08:40:28;9.30;;;6.90;;
10144;SDS011;5113;41.822;23.564;2022-10-29T08:47:12;4.53;;;4.00;;
10144;SDS011;5113;41.822;23.564;2022-10-29T08:50:26;7.17;;;6.00;;
10144;SDS011;5113;41.822;23.564;2022-10-29T08:53:35;8.60;;;5.27;;
10144;SDS011;5113;41.822;23.564;2022-10-29T08:56:47;5.47;;;4.90;;
10144;SDS011;5113;41.822;23.564;2022-10-29T08:59:58;8.63;;;4.90;;
10144;SDS011;5113;41.822;23.564;2022-10-29T09:03:09;7.17;;;4.93;;
10144;SDS011;5113;41.822;23.564;2022-10-29T09:06:18;9.17;;;5.87;;
10144;SDS011;5113;41.822;23.564;2022-10-29T09:09:33;7.47;;;6.23;;
10144;SDS011;5113;41.822;23.564;2022-10-29T09:12:47;7.93;;;5.10;;
10144;SDS011;5113;41.822;23.564;2022-10-29T09:16:16;7.50;;;5.10;;
10144;SDS011;5113;41.822;23.564;2022-10-29T09:19:34;5.00;;;4.50;;
10144;SDS011;5113;41.822;23.564;2022-10-29T09:22:54;6.47;;;3.97;;
10144;SDS011;5113;41.822;23.564;2022-10-29T09:26:10;4.20;;;3.70;;
10144;SDS011;5113;41.822;23.564;2022-10-29T09:29:25;3.33;;;3.10;;
10144;SDS011;5113;41.822;23.564;2022-10-29T09:32:41;4.17;;;3.67;;
10144;SDS011;5113;41.822;23.564;2022-10-29T09:35:56;5.60;;;4.80;;
10144;SDS011;5113;41.822;23.564;2022-10-29T09:39:10;6.47;;;4.60;;
10144;SDS011;5113;41.822;23.564;2022-10-29T09:42:20;7.17;;;5.13;;
10144;SDS011;5113;41.822;23.564;2022-10-29T09:45:33;9.90;;;5.03;;
10144;SDS011;5113;41.822;23.564;2022-10-29T09:48:53;6.10;;;5.20;;
10144;SDS011;5113;41.822;23.564;2022-10-29T09:52:07;7.17;;;5.50;;
10144;SDS011;5113;41.822;23.564;2022-10-29T09:55:21;7.67;;;5.80;;
10144;SDS011;5113;41.822;23.564;2022-10-29T09:58:32;9.43;;;5.67;;
10144;SDS011;5113;41.822;23.564;2022-10-29T10:01:41;18.10;;;11.00;;
10144;SDS011;5113;41.822;23.564;2022-10-29T10:04:48;8.40;;;5.13;;
10144;SDS011;5113;41.822;23.564;2022-10-29T10:08:08;6.77;;;4.53;;
10144;SDS011;5113;41.822;23.564;2022-10-29T10:11:18;15.27;;;8.90;;
10144;SDS011;5113;41.822;23.564;2022-10-29T10:14:25;9.87;;;6.23;;
10144;SDS011;5113;41.822;23.564;2022-10-29T10:17:56;5.37;;;3.10;;
10144;SDS011;5113;41.822;23.564;2022-10-29T10:21:05;4.00;;;3.73;;
10144;SDS011;5113;41.822;23.564;2022-10-29T10:24:25;4.03;;;3.60;;
10144;SDS011;5113;41.822;23.564;2022-10-29T10:27:36;3.93;;;2.57;;
10144;SDS011;5113;41.822;23.564;2022-10-29T10:30:42;8.43;;;3.03;;
10144;SDS011;5113;41.822;23.564;2022-10-29T10:33:49;7.07;;;3.77;;
10144;SDS011;5113;41.822;23.564;2022-10-29T10:37:01;3.03;;;2.83;;
10144;SDS011;5113;41.822;23.564;2022-10-29T10:40:16;4.90;;;4.10;;
10144;SDS011;5113;41.822;23.564;2022-10-29T10:43:29;7.57;;;5.03;;
10144;SDS011;5113;41.822;23.564;2022-10-29T10:46:36;6.90;;;3.20;;
10144;SDS011;5113;41.822;23.564;2022-10-29T10:49:45;3.30;;;3.00;;
10144;SDS011;5113;41.822;23.564;2022-10-29T10:52:51;3.57;;;3.23;;
10144;SDS011;5113;41.822;23.564;2022-10-29T10:55:59;4.77;;;3.83;;
10144;SDS011;5113;41.822;23.564;2022-10-29T10:59:09;3.97;;;3.50;;
10144;SDS011;5113;41.822;23.564;2022-10-29T11:02:24;5.03;;;4.13;;
10144;SDS011;5113;41.822;23.564;2022-10-29T11:05:38;4.97;;;4.07;;
10144;SDS011;5113;41.822;23.564;2022-10-29T11:08:50;3.77;;;3.37;;
10144;SDS011;5113;41.822;23.564;2022-10-29T11:12:02;4.60;;;3.83;;
10144;SDS011;5113;41.822;23.564;2022-10-29T11:15:14;3.27;;;2.97;;
10144;SDS011;5113;41.822;23.564;2022-10-29T11:18:23;3.40;;;3.07;;
10144;SDS011;5113;41.822;23.564;2022-10-29T11:21:35;3.03;;;2.70;;
10144;SDS011;5113;41.822;23.564;2022-10-29T11:24:48;2.97;;;2.77;;
10144;SDS011;5113;41.822;23.564;2022-10-29T11:28:02;3.77;;;3.00;;
10144;SDS011;5113;41.822;23.564;2022-10-29T11:31:18;3.10;;;2.80;;
10144;SDS011;5113;41.822;23.564;2022-10-29T11:34:29;2.60;;;2.40;;
10144;SDS011;5113;41.822;23.564;2022-10-29T11:37:47;2.03;;;1.93;;
10144;SDS011;5113;41.822;23.564;2022-10-29T11:40:58;3.30;;;2.60;;
10144;SDS011;5113;41.822;23.564;2022-10-29T11:44:10;3.27;;;1.97;;
10144;SDS011;5113;41.822;23.564;2022-10-29T11:47:23;2.30;;;2.10;;
10144;SDS011;5113;41.822;23.564;2022-10-29T11:50:43;2.07;;;1.97;;
10144;SDS011;5113;41.822;23.564;2022-10-29T11:53:58;2.20;;;2.10;;
10144;SDS011;5113;41.822;23.564;2022-10-29T11:57:08;2.27;;;2.13;;
10144;SDS011;5113;41.822;23.564;2022-10-29T12:00:21;2.00;;;1.90;;
10144;SDS011;5113;41.822;23.564;2022-10-29T12:07:21;2.33;;;2.20;;
10144;SDS011;5113;41.822;23.564;2022-10-29T12:10:44;2.27;;;2.17;;
10144;SDS011;5113;41.822;23.564;2022-10-29T12:13:57;2.10;;;1.93;;
10144;SDS011;5113;41.822;23.564;2022-10-29T12:17:09;2.10;;;2.00;;
10144;SDS011;5113;41.822;23.564;2022-10-29T12:20:23;2.57;;;2.37;;
10144;SDS011;5113;41.822;23.564;2022-10-29T12:23:39;2.43;;;2.27;;
10144;SDS011;5113;41.822;23.564;2022-10-29T12:26:57;3.83;;;3.10;;
10144;SDS011;5113;41.822;23.564;2022-10-29T12:30:09;2.67;;;2.47;;
10144;SDS011;5113;41.822;23.564;2022-10-29T12:33:21;2.50;;;2.30;;
10144;SDS011;5113;41.822;23.564;2022-10-29T12:36:35;2.20;;;2.10;;
10144;SDS011;5113;41.822;23.564;2022-10-29T12:39:50;2.30;;;2.10;;
10144;SDS011;5113;41.822;23.564;2022-10-29T12:43:01;2.20;;;2.10;;
10144;SDS011;5113;41.822;23.564;2022-10-29T12:46:13;2.47;;;2.27;;
10144;SDS011;5113;41.822;23.564;2022-10-29T12:49:31;4.17;;;2.50;;
10144;SDS011;5113;41.822;23.564;2022-10-29T12:52:51;2.53;;;2.20;;
10144;SDS011;5113;41.822;23.564;2022-10-29T12:56:03;1.90;;;1.80;;
10144;SDS011;5113;41.822;23.564;2022-10-29T13:02:46;1.60;;;1.60;;
10144;SDS011;5113;41.822;23.564;2022-10-29T13:05:54;2.23;;;1.90;;
10144;SDS011;5113;41.822;23.564;2022-10-29T13:09:09;1.93;;;1.83;;
10144;SDS011;5113;41.822;23.564;2022-10-29T13:16:12;2.73;;;2.53;;
10144;SDS011;5113;41.822;23.564;2022-10-29T13:22:50;2.87;;;2.30;;
10144;SDS011;5113;41.822;23.564;2022-10-29T13:26:00;2.20;;;2.03;;
10144;SDS011;5113;41.822;23.564;2022-10-29T13:29:07;4.77;;;2.93;;
10144;SDS011;5113;41.822;23.564;2022-10-29T13:32:29;2.60;;;2.40;;
10144;SDS011;5113;41.822;23.564;2022-10-29T13:35:37;4.40;;;3.37;;
10144;SDS011;5113;41.822;23.564;2022-10-29T13:38:45;2.33;;;2.20;;
10144;SDS011;5113;41.822;23.564;2022-10-29T13:42:12;2.30;;;2.03;;
10144;SDS011;5113;41.822;23.564;2022-10-29T13:45:19;2.70;;;2.50;;
10144;SDS011;5113;41.822;23.564;2022-10-29T13:48:27;2.17;;;2.07;;
10144;SDS011;5113;41.822;23.564;2022-10-29T13:51:41;1.83;;;1.73;;
10144;SDS011;5113;41.822;23.564;2022-10-29T13:54:54;2.70;;;2.43;;
10144;SDS011;5113;41.822;23.564;2022-10-29T13:58:05;3.57;;;2.73;;
10144;SDS011;5113;41.822;23.564;2022-10-29T14:01:17;5.27;;;3.10;;
10144;SDS011;5113;41.822;23.564;2022-10-29T14:04:27;3.40;;;3.10;;
10144;SDS011;5113;41.822;23.564;2022-10-29T14:07:40;1.93;;;1.83;;
10144;SDS011;5113;41.822;23.564;2022-10-29T14:10:52;1.80;;;1.70;;
10144;SDS011;5113;41.822;23.564;2022-10-29T14:14:04;7.37;;;4.77;;
10144;SDS011;5113;41.822;23.564;2022-10-29T14:17:23;5.87;;;4.57;;
10144;SDS011;5113;41.822;23.564;2022-10-29T14:20:29;5.40;;;4.13;;
10144;SDS011;5113;41.822;23.564;2022-10-29T14:23:36;15.40;;;6.90;;
10144;SDS011;5113;41.822;23.564;2022-10-29T14:26:44;24.13;;;10.70;;
10144;SDS011;5113;41.822;23.564;2022-10-29T14:29:52;21.47;;;11.00;;
10144;SDS011;5113;41.822;23.564;2022-10-29T14:32:59;30.57;;;16.37;;
10144;SDS011;5113;41.822;23.564;2022-10-29T14:36:13;18.20;;;11.33;;
10144;SDS011;5113;41.822;23.564;2022-10-29T14:39:24;13.40;;;7.30;;
10144;SDS011;5113;41.822;23.564;2022-10-29T14:42:41;15.40;;;7.17;;
10144;SDS011;5113;41.822;23.564;2022-10-29T14:45:52;20.90;;;9.83;;
10144;SDS011;5113;41.822;23.564;2022-10-29T14:49:01;22.27;;;13.70;;
10144;SDS011;5113;41.822;23.564;2022-10-29T14:52:19;15.53;;;9.97;;
10144;SDS011;5113;41.822;23.564;2022-10-29T14:55:33;21.80;;;17.10;;
10144;SDS011;5113;41.822;23.564;2022-10-29T14:58:43;11.30;;;8.17;;
10144;SDS011;5113;41.822;23.564;2022-10-29T15:01:51;15.43;;;7.00;;
10144;SDS011;5113;41.822;23.564;2022-10-29T15:05:20;26.70;;;14.27;;
10144;SDS011;5113;41.822;23.564;2022-10-29T15:08:29;36.27;;;19.77;;
10144;SDS011;5113;41.822;23.564;2022-10-29T15:11:37;28.73;;;17.43;;
10144;SDS011;5113;41.822;23.564;2022-10-29T15:14:46;32.43;;;21.20;;
10144;SDS011;5113;41.822;23.564;2022-10-29T15:17:55;21.50;;;14.63;;
10144;SDS011;5113;41.822;23.564;2022-10-29T15:21:04;21.00;;;14.07;;
10144;SDS011;5113;41.822;23.564;2022-10-29T15:24:12;40.97;;;17.93;;
10144;SDS011;5113;41.822;23.564;2022-10-29T15:27:24;42.13;;;20.20;;
10144;SDS011;5113;41.822;23.564;2022-10-29T15:30:31;12.80;;;8.60;;
10144;SDS011;5113;41.822;23.564;2022-10-29T15:33:40;6.13;;;4.93;;
10144;SDS011;5113;41.822;23.564;2022-10-29T15:36:47;4.70;;;4.23;;
10144;SDS011;5113;41.822;23.564;2022-10-29T15:39:58;13.23;;;7.10;;
10144;SDS011;5113;41.822;23.564;2022-10-29T15:46:34;25.57;;;14.97;;
10144;SDS011;5113;41.822;23.564;2022-10-29T15:49:54;24.27;;;13.43;;
10144;SDS011;5113;41.822;23.564;2022-10-29T15:53:00;39.93;;;19.37;;
10144;SDS011;5113;41.822;23.564;2022-10-29T15:56:09;59.93;;;32.00;;
10144;SDS011;5113;41.822;23.564;2022-10-29T15:59:17;40.43;;;21.23;;
10144;SDS011;5113;41.822;23.564;2022-10-29T16:02:28;48.47;;;26.07;;
10144;SDS011;5113;41.822;23.564;2022-10-29T16:05:35;91.10;;;37.20;;
10144;SDS011;5113;41.822;23.564;2022-10-29T16:08:43;134.10;;;58.03;;
10144;SDS011;5113;41.822;23.564;2022-10-29T16:11:54;102.30;;;48.63;;
10144;SDS011;5113;41.822;23.564;2022-10-29T16:15:00;154.53;;;62.40;;
10144;SDS011;5113;41.822;23.564;2022-10-29T16:18:06;155.60;;;65.60;;
10144;SDS011;5113;41.822;23.564;2022-10-29T16:21:16;168.83;;;68.57;;
10144;SDS011;5113;41.822;23.564;2022-10-29T16:24:24;136.20;;;51.83;;
10144;SDS011;5113;41.822;23.564;2022-10-29T16:27:30;87.00;;;37.90;;
10144;SDS011;5113;41.822;23.564;2022-10-29T16:30:37;100.23;;;38.27;;
10144;SDS011;5113;41.822;23.564;2022-10-29T16:33:49;83.63;;;35.80;;
10144;SDS011;5113;41.822;23.564;2022-10-29T16:36:57;124.13;;;62.90;;
10144;SDS011;5113;41.822;23.564;2022-10-29T16:40:03;36.53;;;20.50;;
10144;SDS011;5113;41.822;23.564;2022-10-29T16:43:10;28.57;;;12.87;;
10144;SDS011;5113;41.822;23.564;2022-10-29T16:46:17;57.07;;;28.47;;
10144;SDS011;5113;41.822;23.564;2022-10-29T16:49:23;70.60;;;29.40;;
10144;SDS011;5113;41.822;23.564;2022-10-29T16:52:31;58.27;;;27.47;;
10144;SDS011;5113;41.822;23.564;2022-10-29T16:55:38;56.93;;;25.87;;
10144;SDS011;5113;41.822;23.564;2022-10-29T16:58:45;76.63;;;36.03;;
10144;SDS011;5113;41.822;23.564;2022-10-29T17:01:51;81.20;;;41.83;;
10144;SDS011;5113;41.822;23.564;2022-10-29T17:04:58;83.77;;;37.63;;
10144;SDS011;5113;41.822;23.564;2022-10-29T17:08:06;63.90;;;26.33;;
10144;SDS011;5113;41.822;23.564;2022-10-29T17:11:12;53.57;;;21.87;;
10144;SDS011;5113;41.822;23.564;2022-10-29T17:14:18;43.53;;;22.47;;
10144;SDS011;5113;41.822;23.564;2022-10-29T17:17:24;75.90;;;31.23;;
10144;SDS011;5113;41.822;23.564;2022-10-29T17:20:31;128.50;;;57.07;;
10144;SDS011;5113;41.822;23.564;2022-10-29T17:23:38;48.20;;;26.37;;
10144;SDS011;5113;41.822;23.564;2022-10-29T17:26:44;101.77;;;38.80;;
10144;SDS011;5113;41.822;23.564;2022-10-29T17:29:50;87.37;;;37.33;;
10144;SDS011;5113;41.822;23.564;2022-10-29T17:32:56;78.10;;;35.33;;
10144;SDS011;5113;41.822;23.564;2022-10-29T17:36:04;34.40;;;16.77;;
10144;SDS011;5113;41.822;23.564;2022-10-29T17:39:13;35.70;;;17.23;;
10144;SDS011;5113;41.822;23.564;2022-10-29T17:42:19;43.17;;;21.87;;
10144;SDS011;5113;41.822;23.564;2022-10-29T17:45:26;49.17;;;23.87;;
10144;SDS011;5113;41.822;23.564;2022-10-29T17:48:32;81.87;;;40.77;;
10144;SDS011;5113;41.822;23.564;2022-10-29T17:51:38;84.97;;;39.90;;
10144;SDS011;5113;41.822;23.564;2022-10-29T17:54:46;93.87;;;42.17;;
10144;SDS011;5113;41.822;23.564;2022-10-29T17:57:52;52.23;;;27.43;;
10144;SDS011;5113;41.822;23.564;2022-10-29T18:01:03;59.77;;;27.30;;
10144;SDS011;5113;41.822;23.564;2022-10-29T18:04:10;21.93;;;11.20;;
10144;SDS011;5113;41.822;23.564;2022-10-29T18:07:16;17.40;;;9.20;;
10144;SDS011;5113;41.822;23.564;2022-10-29T18:10:24;24.87;;;11.03;;
10144;SDS011;5113;41.822;23.564;2022-10-29T18:13:30;47.67;;;17.27;;
10144;SDS011;5113;41.822;23.564;2022-10-29T18:16:37;40.33;;;16.50;;
10144;SDS011;5113;41.822;23.564;2022-10-29T18:19:43;48.40;;;17.20;;
10144;SDS011;5113;41.822;23.564;2022-10-29T18:22:50;57.67;;;21.83;;
10144;SDS011;5113;41.822;23.564;2022-10-29T18:26:02;52.93;;;20.23;;
10144;SDS011;5113;41.822;23.564;2022-10-29T18:29:09;19.83;;;9.63;;
10144;SDS011;5113;41.822;23.564;2022-10-29T18:32:16;29.93;;;15.87;;
10144;SDS011;5113;41.822;23.564;2022-10-29T18:35:23;31.20;;;15.20;;
10144;SDS011;5113;41.822;23.564;2022-10-29T18:38:30;32.87;;;16.30;;
10144;SDS011;5113;41.822;23.564;2022-10-29T18:41:38;171.13;;;73.07;;
10144;SDS011;5113;41.822;23.564;2022-10-29T18:44:44;96.03;;;44.40;;
10144;SDS011;5113;41.822;23.564;2022-10-29T18:47:50;32.20;;;16.73;;
10144;SDS011;5113;41.822;23.564;2022-10-29T18:51:04;19.90;;;13.00;;
10144;SDS011;5113;41.822;23.564;2022-10-29T18:54:11;17.80;;;10.80;;
10144;SDS011;5113;41.822;23.564;2022-10-29T18:57:19;11.33;;;6.53;;
10144;SDS011;5113;41.822;23.564;2022-10-29T19:00:25;12.30;;;7.37;;
10144;SDS011;5113;41.822;23.564;2022-10-29T19:03:32;16.97;;;9.07;;
10144;SDS011;5113;41.822;23.564;2022-10-29T19:06:38;33.00;;;12.47;;
10144;SDS011;5113;41.822;23.564;2022-10-29T19:09:44;86.70;;;32.53;;
10144;SDS011;5113;41.822;23.564;2022-10-29T19:12:52;68.87;;;33.43;;